createdAt,value
2019-05-30T00:02:07.056Z,99.90
2019-05-30T00:04:38.163Z,99.90
2019-05-30T00:07:11.133Z,99.90
2019-05-30T00:09:42.879Z,99.90
2019-05-30T00:12:13.467Z,99.90
2019-05-30T00:14:44.415Z,99.90
2019-05-30T00:17:15.033Z,99.90
2019-05-30T00:19:45.569Z,99.90
2019-05-30T00:22:16.070Z,99.90
2019-05-30T00:24:46.657Z,99.90
2019-05-30T00:27:17.678Z,99.90
2019-05-30T00:29:48.300Z,99.90
2019-05-30T00:32:19.793Z,99.90
2019-05-30T00:34:50.830Z,99.90
2019-05-30T00:37:21.407Z,99.90
2019-05-30T00:39:52.973Z,99.90
2019-05-30T00:42:23.502Z,99.90
2019-05-30T00:44:54.045Z,99.90
2019-05-30T00:47:25.217Z,99.90
2019-05-30T00:49:56.231Z,99.90
2019-05-30T00:52:26.778Z,99.90
2019-05-30T00:54:58.877Z,99.90
2019-05-30T00:57:29.440Z,99.90
2019-05-30T01:00:00.931Z,99.90
2019-05-30T01:02:32.810Z,99.90
2019-05-30T01:05:03.537Z,99.90
2019-05-30T01:07:34.662Z,99.90
2019-05-30T01:10:07.326Z,99.90
2019-05-30T01:12:38.101Z,99.90
2019-05-30T01:15:09.981Z,99.90
2019-05-30T01:17:40.623Z,99.90
2019-05-30T01:20:11.877Z,99.90
2019-05-30T01:22:42.957Z,99.90
2019-05-30T01:25:14.389Z,99.90
2019-05-30T01:27:44.947Z,99.90
2019-05-30T01:30:19.359Z,99.90
2019-05-30T01:32:49.878Z,99.90
2019-05-30T01:35:21.001Z,99.90
2019-05-30T01:37:51.506Z,99.90
2019-05-30T01:40:22.182Z,99.90
2019-05-30T01:42:52.730Z,99.90
2019-05-30T01:45:23.756Z,99.90
2019-05-30T01:47:55.209Z,99.90
2019-05-30T01:50:26.209Z,99.90
2019-05-30T01:52:56.841Z,99.90
2019-05-30T01:55:28.349Z,99.90
2019-05-30T01:58:01.397Z,99.90
2019-05-30T02:00:40.293Z,99.90
2019-05-30T02:03:10.841Z,99.90
2019-05-30T02:05:41.952Z,99.90
2019-05-30T02:08:13.053Z,99.90
2019-05-30T02:10:44.398Z,99.90
2019-05-30T02:13:14.991Z,99.90
2019-05-30T02:15:45.635Z,99.90
2019-05-30T02:18:18.323Z,99.90
2019-05-30T02:20:49.345Z,99.90
2019-05-30T02:23:20.281Z,99.90
2019-05-30T02:25:50.857Z,99.90
2019-05-30T02:28:21.926Z,99.90
2019-05-30T02:30:53.102Z,99.90
2019-05-30T02:33:23.694Z,99.90
2019-05-30T02:35:54.174Z,99.90
2019-05-30T02:38:24.642Z,99.90
2019-05-30T02:40:56.457Z,99.90
2019-05-30T02:43:27.857Z,99.90
2019-05-30T02:45:58.521Z,99.90
2019-05-30T02:48:29.978Z,99.90
2019-05-30T02:51:01.053Z,99.90
2019-05-30T02:53:31.614Z,99.90
2019-05-30T02:56:03.689Z,99.90
2019-05-30T02:58:34.609Z,99.90
2019-05-30T03:01:07.012Z,99.90
2019-05-30T03:03:38.142Z,99.90
2019-05-30T03:06:09.361Z,99.90
2019-05-30T03:08:41.157Z,99.90
2019-05-30T03:11:15.056Z,99.90
2019-05-30T03:13:44.226Z,99.90
2019-05-30T03:16:14.792Z,99.90
2019-05-30T03:18:45.594Z,99.90
2019-05-30T03:21:16.146Z,99.90
2019-05-30T03:23:46.642Z,99.90
2019-05-30T03:26:17.175Z,99.90
2019-05-30T03:28:47.674Z,99.90
2019-05-30T03:31:27.927Z,99.90
2019-05-30T03:33:52.958Z,99.90
2019-05-30T03:36:30.197Z,99.90
2019-05-30T03:38:56.792Z,99.90
2019-05-30T03:41:27.430Z,99.90
2019-05-30T03:43:57.897Z,99.90
2019-05-30T03:46:32.393Z,99.90
2019-05-30T03:49:06.747Z,99.90
2019-05-30T03:51:39.323Z,99.90
2019-05-30T03:54:12.245Z,99.90
2019-05-30T03:56:48.096Z,99.90
2019-05-30T03:59:31.986Z,99.90
2019-05-30T04:02:56.997Z,99.90
2019-05-30T04:05:23.332Z,99.90
2019-05-30T04:07:56.179Z,99.90
2019-05-30T04:10:30.575Z,99.90
2019-05-30T04:13:27.744Z,99.90
2019-05-30T04:15:58.286Z,99.90
2019-05-30T04:18:28.814Z,99.90
2019-05-30T04:20:59.292Z,99.90
2019-05-30T04:23:29.832Z,99.90
2019-05-30T04:26:01.164Z,99.90
2019-05-30T04:28:31.856Z,99.90
2019-05-30T04:31:03.191Z,99.90
2019-05-30T04:33:34.010Z,99.90
2019-05-30T04:36:05.169Z,99.90
2019-05-30T04:38:35.703Z,99.90
2019-05-30T04:41:08.755Z,99.90
2019-05-30T04:43:40.511Z,99.90
2019-05-30T04:46:12.637Z,99.90
2019-05-30T04:48:43.625Z,99.90
2019-05-30T04:51:14.581Z,99.90
2019-05-30T04:53:46.865Z,99.90
2019-05-30T04:56:19.412Z,99.90
2019-05-30T04:58:50.458Z,99.90
2019-05-30T05:01:22.178Z,99.90
2019-05-30T05:03:53.338Z,99.90
2019-05-30T05:06:23.877Z,99.90
2019-05-30T05:08:54.420Z,99.90
2019-05-30T05:11:25.512Z,99.90
2019-05-30T05:13:56.222Z,99.90
2019-05-30T05:16:35.579Z,99.90
2019-05-30T05:18:59.879Z,99.90
2019-05-30T05:21:30.409Z,99.90
2019-05-30T05:24:00.922Z,99.90
2019-05-30T05:26:31.421Z,99.90
2019-05-30T05:29:01.921Z,99.90
2019-05-30T05:31:32.494Z,99.90
2019-05-30T05:34:03.886Z,99.90
2019-05-30T05:36:35.439Z,99.90
2019-05-30T05:39:07.474Z,99.90
2019-05-30T05:41:37.939Z,99.90
2019-05-30T05:44:08.861Z,99.90
2019-05-30T05:46:39.416Z,99.90
2019-05-30T05:49:10.313Z,99.90
2019-05-30T05:51:41.862Z,99.90
2019-05-30T05:54:12.371Z,99.90
2019-05-30T05:56:42.847Z,99.90
2019-05-30T05:59:13.343Z,99.90
2019-05-30T06:01:43.875Z,99.90
2019-05-30T06:04:14.402Z,99.90
2019-05-30T06:06:44.911Z,99.90
2019-05-30T06:09:16.409Z,99.90
2019-05-30T06:11:49.132Z,99.90
2019-05-30T06:14:19.941Z,99.90
2019-05-30T06:16:50.899Z,99.90
2019-05-30T06:19:21.402Z,99.90
2019-05-30T06:21:54.271Z,99.90
2019-05-30T06:24:24.060Z,99.90
2019-05-30T06:26:54.545Z,99.90
2019-05-30T06:29:26.270Z,99.90
2019-05-30T06:31:56.707Z,99.90
2019-05-30T06:34:36.650Z,99.90
2019-05-30T06:37:01.399Z,99.90
2019-05-30T06:39:31.932Z,99.90
2019-05-30T06:42:02.485Z,99.90
2019-05-30T06:44:33.064Z,99.90
2019-05-30T06:47:03.536Z,99.90
2019-05-30T06:49:34.929Z,99.90
2019-05-30T06:52:05.594Z,99.90
2019-05-30T06:54:36.023Z,99.90
2019-05-30T06:57:06.605Z,99.90
2019-05-30T06:59:37.144Z,99.90
2019-05-30T07:02:08.942Z,99.90
2019-05-30T07:04:51.164Z,99.90
2019-05-30T07:07:15.368Z,99.90
2019-05-30T07:09:49.933Z,99.90
2019-05-30T07:12:20.379Z,99.90
2019-05-30T07:14:51.328Z,99.90
2019-05-30T07:17:21.801Z,99.90
2019-05-30T07:19:52.332Z,99.90
2019-05-30T07:22:23.544Z,99.90
2019-05-30T07:24:54.693Z,99.90
2019-05-30T07:27:26.055Z,99.90
2019-05-30T07:29:57.793Z,99.90
2019-05-30T07:32:28.307Z,99.90
2019-05-30T07:35:06.566Z,99.90
2019-05-30T07:37:32.319Z,99.90
2019-05-30T07:40:02.867Z,99.90
2019-05-30T07:42:34.798Z,99.90
2019-05-30T07:45:06.259Z,99.90
2019-05-30T07:47:38.579Z,99.90
2019-05-30T07:50:11.054Z,99.90
2019-05-30T07:52:42.039Z,99.90
2019-05-30T07:55:13.256Z,99.90
2019-05-30T07:57:45.939Z,99.90
2019-05-30T08:00:18.856Z,99.90
2019-05-30T08:02:49.398Z,99.90
2019-05-30T08:05:24.240Z,99.90
2019-05-30T08:07:52.375Z,99.90
2019-05-30T08:10:23.056Z,99.90
2019-05-30T08:12:54.564Z,99.90
2019-05-30T08:15:25.507Z,99.90
2019-05-30T08:17:56.022Z,99.90
2019-05-30T08:20:27.542Z,99.90
2019-05-30T08:22:58.515Z,99.90
2019-05-30T08:25:30.007Z,99.90
2019-05-30T08:28:00.603Z,99.90
2019-05-30T08:30:32.375Z,99.90
2019-05-30T08:33:02.848Z,99.90
2019-05-30T08:35:44.458Z,99.90
2019-05-30T08:38:07.164Z,99.90
2019-05-30T08:40:37.848Z,99.90
2019-05-30T08:43:08.988Z,99.90
2019-05-30T08:45:40.128Z,99.90
2019-05-30T08:48:11.058Z,99.90
2019-05-30T08:50:44.624Z,99.90
2019-05-30T08:53:13.656Z,99.90
2019-05-30T08:55:44.347Z,99.90
2019-05-30T08:58:16.233Z,99.90
2019-05-30T09:00:47.200Z,98.30
2019-05-30T09:03:17.797Z,98.30
2019-05-30T09:06:02.657Z,94.20
2019-05-30T09:08:20.968Z,99.10
2019-05-30T09:10:51.943Z,94.90
2019-05-30T09:13:22.538Z,92.80
2019-05-30T09:15:53.611Z,90.90
2019-05-30T09:18:25.270Z,93.00
2019-05-30T09:20:56.805Z,91.70
2019-05-30T09:23:27.755Z,88.90
2019-05-30T09:25:58.919Z,88.90
2019-05-30T09:28:30.730Z,83.80
2019-05-30T09:31:01.800Z,87.20
2019-05-30T09:33:32.934Z,85.80
2019-05-30T09:36:13.142Z,80.70
2019-05-30T09:38:37.210Z,85.00
2019-05-30T09:41:08.396Z,81.50
2019-05-30T09:43:40.899Z,82.90
2019-05-30T09:46:12.310Z,86.90
2019-05-30T09:48:44.733Z,83.60
2019-05-30T09:51:15.426Z,88.90
2019-05-30T09:53:46.428Z,89.90
2019-05-30T09:56:18.098Z,82.90
2019-05-30T09:58:49.717Z,83.70
2019-05-30T10:01:20.408Z,85.50
2019-05-30T10:03:52.245Z,89.40
2019-05-30T10:06:29.440Z,81.90
2019-05-30T10:08:56.284Z,81.70
2019-05-30T10:11:27.208Z,85.10
2019-05-30T10:13:59.335Z,84.40
2019-05-30T10:16:29.953Z,78.20
2019-05-30T10:19:00.642Z,74.50
2019-05-30T10:21:32.138Z,76.00
2019-05-30T10:24:03.307Z,78.30
2019-05-30T10:26:33.950Z,82.10
2019-05-30T10:29:05.344Z,85.60
2019-05-30T10:31:36.921Z,89.70
2019-05-30T10:34:08.125Z,90.90
2019-05-30T10:36:44.328Z,91.60
2019-05-30T10:39:12.590Z,93.30
2019-05-30T10:41:43.160Z,84.10
2019-05-30T10:44:25.805Z,84.90
2019-05-30T10:46:57.243Z,82.80
2019-05-30T10:49:34.601Z,86.90
2019-05-30T10:52:00.513Z,89.40
2019-05-30T10:54:32.836Z,87.70
2019-05-30T10:57:03.902Z,83.60
2019-05-30T10:59:35.142Z,67.70
2019-05-30T11:02:06.057Z,70.00
2019-05-30T11:04:38.146Z,75.30
2019-05-30T11:07:29.564Z,74.10
2019-05-30T11:10:07.370Z,71.90
2019-05-30T11:12:38.919Z,65.80
2019-05-30T11:15:09.591Z,58.60
2019-05-30T11:17:40.620Z,59.60
2019-05-30T11:20:11.809Z,58.80
2019-05-30T11:22:42.395Z,56.90
2019-05-30T11:25:13.414Z,52.30
2019-05-30T11:27:45.709Z,56.30
2019-05-30T11:30:16.526Z,55.40
2019-05-30T11:32:47.175Z,56.00
2019-05-30T11:35:18.237Z,57.90
2019-05-30T11:37:49.408Z,58.90
2019-05-30T11:40:21.632Z,60.80
2019-05-30T11:42:53.443Z,59.70
2019-05-30T11:45:24.770Z,60.30
2019-05-30T11:47:55.973Z,62.90
2019-05-30T11:50:27.834Z,59.50
2019-05-30T11:53:00.032Z,55.80
2019-05-30T11:55:31.929Z,52.60
2019-05-30T11:58:04.308Z,51.40
2019-05-30T12:00:35.546Z,52.00
2019-05-30T12:03:08.115Z,52.20
2019-05-30T12:05:39.015Z,53.90
2019-05-30T12:08:10.217Z,55.70
2019-05-30T12:10:46.384Z,54.20
2019-05-30T12:13:17.180Z,53.40
2019-05-30T12:15:47.817Z,51.00
2019-05-30T12:18:18.416Z,50.30
2019-05-30T12:20:53.598Z,53.00
2019-05-30T12:23:24.312Z,50.60
2019-05-30T12:25:56.049Z,50.90
2019-05-30T12:28:27.089Z,49.90
2019-05-30T12:32:02.318Z,51.70
2019-05-30T12:34:34.209Z,52.30
2019-05-30T12:37:05.743Z,53.80
2019-05-30T12:39:36.372Z,50.10
2019-05-30T12:42:07.807Z,51.00
2019-05-30T12:44:38.764Z,47.70
2019-05-30T12:47:09.825Z,47.50
2019-05-30T12:49:40.726Z,45.90
2019-05-30T12:52:11.300Z,45.50
2019-05-30T12:54:41.907Z,46.50
2019-05-30T12:57:13.187Z,44.90
2019-05-30T12:59:44.772Z,46.90
2019-05-30T13:02:16.324Z,46.70
2019-05-30T13:04:47.875Z,43.60
2019-05-30T13:07:18.394Z,45.00
2019-05-30T13:09:49.356Z,47.80
2019-05-30T13:12:19.918Z,49.50
2019-05-30T13:14:51.040Z,49.20
2019-05-30T13:17:31.247Z,48.70
2019-05-30T13:20:01.844Z,45.90
2019-05-30T13:22:32.444Z,43.10
2019-05-30T13:25:03.842Z,43.10
2019-05-30T13:27:35.680Z,44.70
2019-05-30T13:30:08.180Z,45.00
2019-05-30T13:32:38.889Z,45.40
2019-05-30T13:35:09.990Z,47.70
2019-05-30T13:37:41.027Z,48.80
2019-05-30T13:40:24.489Z,49.10
2019-05-30T13:42:44.800Z,47.80
2019-05-30T13:45:15.988Z,47.90
2019-05-30T13:47:46.672Z,47.00
2019-05-30T13:50:18.485Z,45.50
2019-05-30T13:52:50.443Z,45.40
2019-05-30T13:55:21.585Z,47.40
2019-05-30T13:57:52.811Z,48.40
2019-05-30T14:00:49.854Z,48.10
2019-05-30T14:03:39.360Z,48.20
2019-05-30T14:06:11.265Z,49.80
2019-05-30T14:08:43.356Z,50.00
2019-05-30T14:11:14.041Z,50.30
2019-05-30T14:13:44.711Z,50.50
2019-05-30T14:16:15.787Z,50.50
2019-05-30T14:18:46.817Z,51.00
2019-05-30T14:21:18.598Z,50.40
2019-05-30T14:23:50.644Z,50.80
2019-05-30T14:26:21.274Z,50.60
2019-05-30T14:28:52.849Z,50.20
2019-05-30T14:31:23.484Z,46.20
2019-05-30T14:33:54.476Z,44.20
2019-05-30T14:36:26.389Z,45.60
2019-05-30T14:38:58.761Z,45.70
2019-05-30T14:41:29.177Z,43.80
2019-05-30T14:43:59.660Z,43.30
2019-05-30T14:46:31.228Z,44.10
2019-05-30T14:49:02.149Z,41.80
2019-05-30T14:51:35.314Z,41.10
2019-05-30T14:54:06.894Z,43.20
2019-05-30T14:56:37.973Z,43.10
2019-05-30T14:59:08.993Z,41.40
2019-05-30T15:01:39.495Z,42.50
2019-05-30T15:04:11.333Z,41.30
2019-05-30T15:06:43.045Z,42.40
2019-05-30T15:09:25.142Z,42.70
2019-05-30T15:11:47.121Z,42.60
2019-05-30T15:14:17.651Z,42.10
2019-05-30T15:16:48.246Z,43.70
2019-05-30T15:19:19.949Z,43.40
2019-05-30T15:21:50.989Z,42.50
2019-05-30T15:24:22.180Z,43.00
2019-05-30T15:26:53.240Z,41.80
2019-05-30T15:29:24.166Z,41.10
2019-05-30T15:31:54.688Z,41.60
2019-05-30T15:34:25.596Z,43.50
2019-05-30T15:36:56.427Z,44.30
2019-05-30T15:39:32.629Z,46.20
2019-05-30T15:42:00.696Z,46.50
2019-05-30T15:44:31.594Z,44.80
2019-05-30T15:47:02.174Z,46.30
2019-05-30T15:49:32.790Z,47.40
2019-05-30T15:52:03.322Z,45.80
2019-05-30T15:54:34.867Z,44.60
2019-05-30T15:57:05.340Z,44.90
2019-05-30T15:59:35.878Z,46.30
2019-05-30T16:02:07.260Z,46.80
2019-05-30T16:04:39.352Z,45.60
2019-05-30T16:07:10.537Z,46.50
2019-05-30T16:09:47.069Z,45.50
2019-05-30T16:12:13.248Z,45.10
2019-05-30T16:14:44.802Z,45.90
2019-05-30T16:17:15.800Z,47.60
2019-05-30T16:19:46.366Z,47.70
2019-05-30T16:22:18.385Z,45.70
2019-05-30T16:24:49.651Z,44.90
2019-05-30T16:27:21.812Z,44.50
2019-05-30T16:29:52.455Z,45.60
2019-05-30T16:32:23.307Z,47.00
2019-05-30T16:34:54.336Z,46.40
2019-05-30T16:37:24.940Z,44.90
2019-05-30T16:40:05.816Z,46.60
2019-05-30T16:42:28.046Z,47.10
2019-05-30T16:44:59.320Z,46.50
2019-05-30T16:47:30.104Z,47.20
2019-05-30T16:50:01.190Z,48.00
2019-05-30T16:52:31.751Z,49.00
2019-05-30T16:55:03.058Z,49.90
2019-05-30T16:57:33.657Z,49.30
2019-05-30T17:00:05.202Z,49.00
2019-05-30T17:02:35.903Z,48.60
2019-05-30T17:05:07.309Z,48.70
2019-05-30T17:07:37.867Z,48.60
2019-05-30T17:10:22.005Z,49.10
2019-05-30T17:12:41.067Z,50.70
2019-05-30T17:15:12.120Z,51.20
2019-05-30T17:17:43.044Z,51.90
2019-05-30T17:20:14.692Z,51.70
2019-05-30T17:22:45.352Z,51.20
2019-05-30T17:25:25.164Z,51.30
2019-05-30T17:27:57.135Z,52.00
2019-05-30T17:30:28.791Z,51.90
2019-05-30T17:33:01.338Z,52.50
2019-05-30T17:35:35.802Z,53.10
2019-05-30T17:38:06.309Z,53.50
2019-05-30T17:40:44.600Z,54.30
2019-05-30T17:43:10.675Z,55.10
2019-05-30T17:45:41.773Z,55.00
2019-05-30T17:48:16.499Z,55.50
2019-05-30T17:50:44.395Z,55.70
2019-05-30T17:53:15.576Z,55.30
2019-05-30T17:55:46.583Z,55.90
2019-05-30T17:58:17.622Z,55.50
2019-05-30T18:00:48.649Z,55.70
2019-05-30T18:03:20.259Z,56.90
2019-05-30T18:05:50.931Z,56.50
2019-05-30T18:08:22.835Z,56.10
2019-05-30T18:10:54.292Z,55.80
2019-05-30T18:13:25.479Z,56.20
2019-05-30T18:15:56.093Z,56.70
2019-05-30T18:18:27.282Z,57.30
2019-05-30T18:20:59.011Z,57.70
2019-05-30T18:23:29.980Z,58.10
2019-05-30T18:26:01.352Z,59.40
2019-05-30T18:28:34.891Z,59.70
2019-05-30T18:31:06.440Z,59.10
2019-05-30T18:33:36.954Z,59.70
2019-05-30T18:36:08.431Z,59.40
2019-05-30T18:38:39.753Z,59.30
2019-05-30T18:41:15.697Z,59.60
2019-05-30T18:43:44.968Z,59.60
2019-05-30T18:46:16.091Z,60.20
2019-05-30T18:48:47.071Z,60.50
2019-05-30T18:51:18.049Z,60.80
2019-05-30T18:53:48.588Z,61.40
2019-05-30T18:56:19.527Z,62.90
2019-05-30T18:58:50.116Z,64.20
2019-05-30T19:01:22.427Z,64.40
2019-05-30T19:03:53.377Z,65.00
2019-05-30T19:06:23.960Z,65.20
2019-05-30T19:08:55.455Z,64.80
2019-05-30T19:11:29.609Z,65.40
2019-05-30T19:13:58.251Z,66.40
2019-05-30T19:16:30.847Z,67.40
2019-05-30T19:19:02.627Z,68.30
2019-05-30T19:21:34.174Z,68.90
2019-05-30T19:24:05.865Z,69.60
2019-05-30T19:26:37.253Z,70.80
2019-05-30T19:29:08.300Z,71.70
2019-05-30T19:31:40.308Z,71.80
2019-05-30T19:34:10.852Z,72.00
2019-05-30T19:36:41.817Z,72.90
2019-05-30T19:39:13.263Z,73.10
2019-05-30T19:41:56.258Z,73.80
2019-05-30T19:44:17.359Z,74.90
2019-05-30T19:46:48.354Z,76.10
2019-05-30T19:49:18.936Z,76.40
2019-05-30T19:51:49.514Z,77.40
2019-05-30T19:54:20.793Z,78.40
2019-05-30T19:56:51.836Z,79.10
2019-05-30T19:59:22.852Z,79.80
2019-05-30T20:01:53.465Z,79.70
2019-05-30T20:04:25.011Z,80.40
2019-05-30T20:06:56.620Z,81.10
2019-05-30T20:09:27.176Z,79.50
2019-05-30T20:12:03.243Z,75.30
2019-05-30T20:14:30.964Z,74.30
2019-05-30T20:17:02.218Z,73.90
2019-05-30T20:19:33.468Z,73.80
2019-05-30T20:22:03.975Z,73.60
2019-05-30T20:24:34.577Z,74.70
2019-05-30T20:27:05.188Z,74.80
2019-05-30T20:29:37.221Z,75.00
2019-05-30T20:32:08.177Z,75.80
2019-05-30T20:34:38.934Z,76.40
2019-05-30T20:37:09.979Z,77.10
2019-05-30T20:39:42.981Z,77.70
2019-05-30T20:42:19.193Z,77.50
2019-05-30T20:44:47.179Z,77.90
2019-05-30T20:47:18.650Z,78.60
2019-05-30T20:49:49.617Z,79.10
2019-05-30T20:52:20.201Z,78.70
2019-05-30T20:54:50.784Z,79.50
2019-05-30T20:57:21.915Z,79.10
2019-05-30T20:59:52.478Z,79.70
2019-05-30T21:02:23.083Z,80.10
2019-05-30T21:04:54.299Z,80.40
2019-05-30T21:07:25.752Z,80.80
2019-05-30T21:09:56.793Z,80.60
2019-05-30T21:12:37.936Z,81.30
2019-05-30T21:15:03.968Z,81.70
2019-05-30T21:17:35.824Z,82.60
2019-05-30T21:20:11.448Z,83.50
2019-05-30T21:22:42.712Z,84.40
2019-05-30T21:25:14.635Z,85.10
2019-05-30T21:27:47.334Z,85.80
2019-05-30T21:30:18.301Z,87.10
2019-05-30T21:32:49.554Z,88.50
2019-05-30T21:35:20.861Z,90.00
2019-05-30T21:37:51.512Z,90.00
2019-05-30T21:40:22.535Z,90.50
2019-05-30T21:43:04.697Z,91.00
2019-05-30T21:45:27.004Z,91.50
2019-05-30T21:47:59.766Z,92.10
2019-05-30T21:50:30.928Z,92.60
2019-05-30T21:53:02.762Z,93.10
2019-05-30T21:55:33.399Z,93.90
2019-05-30T21:58:04.466Z,94.70
2019-05-30T22:01:25.691Z,95.40
2019-05-30T22:03:56.705Z,96.20
2019-05-30T22:06:30.055Z,97.30
2019-05-30T22:09:03.485Z,98.40
2019-05-30T22:11:35.112Z,99.30
2019-05-30T22:14:06.236Z,99.90
2019-05-30T22:16:36.799Z,99.90
2019-05-30T22:19:08.145Z,99.90
2019-05-30T22:21:39.176Z,99.90
2019-05-30T22:24:09.667Z,99.90
2019-05-30T22:26:40.115Z,99.90
2019-05-30T22:29:11.352Z,99.90
2019-05-30T22:31:42.543Z,99.90
2019-05-30T22:34:13.700Z,99.90
2019-05-30T22:36:44.695Z,99.90
2019-05-30T22:39:15.631Z,99.90
2019-05-30T22:41:46.188Z,99.90
2019-05-30T22:44:16.675Z,99.90
2019-05-30T22:46:48.102Z,99.90
2019-05-30T22:49:21.093Z,99.90
2019-05-30T22:51:53.108Z,99.90
2019-05-30T22:54:23.720Z,99.90
2019-05-30T22:56:55.671Z,99.90
2019-05-30T22:59:26.824Z,99.90
2019-05-30T23:01:57.334Z,99.90
2019-05-30T23:04:29.431Z,99.90
2019-05-30T23:06:59.887Z,99.90
2019-05-30T23:09:30.371Z,99.90
2019-05-30T23:12:01.928Z,99.90
2019-05-30T23:14:32.469Z,99.90
2019-05-30T23:17:02.948Z,99.90
2019-05-30T23:19:33.512Z,99.90
2019-05-30T23:22:03.984Z,99.90
2019-05-30T23:24:34.909Z,99.90
2019-05-30T23:27:08.415Z,99.90
2019-05-30T23:29:39.946Z,99.90
2019-05-30T23:32:11.487Z,99.90
2019-05-30T23:34:41.975Z,99.90
2019-05-30T23:37:13.332Z,99.90
2019-05-30T23:39:43.867Z,99.90
2019-05-30T23:42:14.735Z,99.90
2019-05-30T23:44:45.219Z,99.90
2019-05-30T23:47:15.765Z,99.90
2019-05-30T23:49:46.741Z,99.90
2019-05-30T23:52:17.200Z,99.90
2019-05-30T23:54:47.724Z,99.90
2019-05-30T23:57:18.174Z,99.90
2019-05-30T23:59:48.638Z,99.90
